createdAt,value
2018-10-03T00:00:12.874Z,98.56
2018-10-03T00:01:12.968Z,99.04
2018-10-03T00:02:13.098Z,98.08
2018-10-03T00:03:13.152Z,98.66
2018-10-03T00:04:13.248Z,98.18
2018-10-03T00:05:13.336Z,98.85
2018-10-03T00:06:13.426Z,99.04
2018-10-03T00:07:13.520Z,98.85
2018-10-03T00:08:13.612Z,98.27
2018-10-03T00:09:13.705Z,98.37
2018-10-03T00:10:13.807Z,97.80
2018-10-03T00:11:13.891Z,97.89
2018-10-03T00:12:14.021Z,97.80
2018-10-03T00:13:14.085Z,98.37
2018-10-03T00:14:14.167Z,98.85
2018-10-03T00:15:14.263Z,98.85
2018-10-03T00:16:14.355Z,99.04
2018-10-03T00:17:14.448Z,98.85
2018-10-03T00:18:14.540Z,98.56
2018-10-03T00:19:14.634Z,98.75
2018-10-03T00:20:14.728Z,98.18
2018-10-03T00:21:14.819Z,98.37
2018-10-03T00:22:14.918Z,98.03
2018-10-03T00:23:15.056Z,98.18
2018-10-03T00:24:15.097Z,97.99
2018-10-03T00:25:15.191Z,97.99
2018-10-03T00:26:15.280Z,97.89
2018-10-03T00:27:15.375Z,97.89
2018-10-03T00:28:15.464Z,97.80
2018-10-03T00:29:15.553Z,97.80
2018-10-03T00:30:15.646Z,97.89
2018-10-03T00:31:15.763Z,97.89
2018-10-03T00:32:15.904Z,98.13
2018-10-03T00:33:15.949Z,98.13
2018-10-03T00:34:16.042Z,97.66
2018-10-03T00:35:16.133Z,97.47
2018-10-03T00:36:16.227Z,97.75
2018-10-03T00:37:16.319Z,98.32
2018-10-03T00:38:16.405Z,97.94
2018-10-03T00:39:16.494Z,97.22
2018-10-03T00:40:16.588Z,97.37
2018-10-03T00:41:16.679Z,98.37
2018-10-03T00:42:16.778Z,98.18
2018-10-03T00:43:16.871Z,97.71
2018-10-03T00:44:16.983Z,97.89
2018-10-03T00:45:17.072Z,98.37
2018-10-03T00:46:17.174Z,98.56
2018-10-03T00:47:17.262Z,98.27
2018-10-03T00:48:17.357Z,98.37
2018-10-03T00:49:17.453Z,98.18
2018-10-03T00:50:17.543Z,98.18
2018-10-03T00:51:17.635Z,98.18
2018-10-03T00:52:17.732Z,98.94
2018-10-03T00:53:17.827Z,98.85
2018-10-03T00:54:17.920Z,98.94
2018-10-03T00:55:18.018Z,99.90
2018-10-03T00:56:18.104Z,99.42
2018-10-03T00:57:18.202Z,99.42
2018-10-03T00:58:18.296Z,99.04
2018-10-03T00:59:25.557Z,99.32
2018-10-03T01:00:18.537Z,98.37
2018-10-03T01:01:18.627Z,98.56
2018-10-03T01:02:18.718Z,98.94
2018-10-03T01:03:18.811Z,98.13
2018-10-03T01:04:18.919Z,98.27
2018-10-03T01:05:19.011Z,98.52
2018-10-03T01:06:19.104Z,98.18
2018-10-03T01:07:19.197Z,98.94
2018-10-03T01:08:19.289Z,98.66
2018-10-03T01:09:19.382Z,98.66
2018-10-03T01:10:19.471Z,98.66
2018-10-03T01:11:19.560Z,98.42
2018-10-03T01:12:19.648Z,98.23
2018-10-03T01:13:19.745Z,97.75
2018-10-03T01:14:19.831Z,98.23
2018-10-03T01:15:19.927Z,97.85
2018-10-03T01:16:20.018Z,97.94
2018-10-03T01:17:20.111Z,98.08
2018-10-03T01:18:20.206Z,99.04
2018-10-03T01:19:20.295Z,98.75
2018-10-03T01:20:20.387Z,99.04
2018-10-03T01:21:20.479Z,99.23
2018-10-03T01:22:20.571Z,98.94
2018-10-03T01:23:20.663Z,99.23
2018-10-03T01:24:20.753Z,99.13
2018-10-03T01:25:20.846Z,99.04
2018-10-03T01:26:20.937Z,98.75
2018-10-03T01:27:21.034Z,98.75
2018-10-03T01:28:21.123Z,98.66
2018-10-03T01:29:21.214Z,98.56
2018-10-03T01:30:21.297Z,98.85
2018-10-03T01:31:21.387Z,98.75
2018-10-03T01:32:21.487Z,99.13
2018-10-03T01:33:21.575Z,99.80
2018-10-03T01:34:21.667Z,99.04
2018-10-03T01:35:21.759Z,99.13
2018-10-03T01:36:21.853Z,99.13
2018-10-03T01:37:21.943Z,98.75
2018-10-03T01:38:22.040Z,98.56
2018-10-03T01:39:22.124Z,98.56
2018-10-03T01:40:22.219Z,99.04
2018-10-03T01:41:22.307Z,98.56
2018-10-03T01:42:22.406Z,98.94
2018-10-03T01:43:22.502Z,99.13
2018-10-03T01:44:22.593Z,99.23
2018-10-03T01:45:22.685Z,98.85
2018-10-03T01:46:22.777Z,98.56
2018-10-03T01:47:22.864Z,98.94
2018-10-03T01:48:22.961Z,98.56
2018-10-03T01:49:23.052Z,98.37
2018-10-03T01:50:23.141Z,98.75
2018-10-03T01:51:23.229Z,98.75
2018-10-03T01:52:23.323Z,98.85
2018-10-03T01:53:23.421Z,99.23
2018-10-03T01:54:23.513Z,98.94
2018-10-03T01:55:23.614Z,98.94
2018-10-03T01:56:23.704Z,99.23
2018-10-03T01:57:23.794Z,99.23
2018-10-03T01:58:23.889Z,98.94
2018-10-03T01:59:23.980Z,99.32
2018-10-03T02:00:24.072Z,99.13
2018-10-03T02:01:24.164Z,99.13
2018-10-03T02:02:24.248Z,99.04
2018-10-03T02:03:24.342Z,99.32
2018-10-03T02:04:24.435Z,99.61
2018-10-03T02:05:24.527Z,99.42
2018-10-03T02:06:24.617Z,99.52
2018-10-03T02:07:24.710Z,99.61
2018-10-03T02:08:24.801Z,99.80
2018-10-03T02:09:24.894Z,99.71
2018-10-03T02:10:24.983Z,99.13
2018-10-03T02:11:25.075Z,99.42
2018-10-03T02:12:25.167Z,98.85
2018-10-03T02:13:25.263Z,99.32
2018-10-03T02:14:25.358Z,99.90
2018-10-03T02:15:25.445Z,99.42
2018-10-03T02:16:25.541Z,99.52
2018-10-03T02:17:25.633Z,99.04
2018-10-03T02:18:25.724Z,98.94
2018-10-03T02:19:25.820Z,99.61
2018-10-03T02:20:25.906Z,99.42
2018-10-03T02:21:26.002Z,99.32
2018-10-03T02:22:26.093Z,99.61
2018-10-03T02:23:26.189Z,99.80
2018-10-03T02:24:26.292Z,99.61
2018-10-03T02:25:26.376Z,99.52
2018-10-03T02:26:26.468Z,99.71
2018-10-03T02:27:26.569Z,98.94
2018-10-03T02:28:26.660Z,98.94
2018-10-03T02:29:26.761Z,99.04
2018-10-03T02:30:26.845Z,98.56
2018-10-03T02:31:26.935Z,98.85
2018-10-03T02:32:27.027Z,99.04
2018-10-03T02:33:27.122Z,98.37
2018-10-03T02:34:27.214Z,98.37
2018-10-03T02:35:27.309Z,98.37
2018-10-03T02:36:27.423Z,97.99
2018-10-03T02:37:27.516Z,98.85
2018-10-03T02:38:27.611Z,98.56
2018-10-03T02:39:27.703Z,98.56
2018-10-03T02:40:27.795Z,98.66
2018-10-03T02:41:27.885Z,98.94
2018-10-03T02:42:27.978Z,98.75
2018-10-03T02:43:28.126Z,98.66
2018-10-03T02:44:28.166Z,98.66
2018-10-03T02:45:28.261Z,98.85
2018-10-03T02:46:28.353Z,98.27
2018-10-03T02:47:28.443Z,98.03
2018-10-03T02:48:28.534Z,98.03
2018-10-03T02:49:28.633Z,97.94
2018-10-03T02:50:28.727Z,98.23
2018-10-03T02:51:28.818Z,97.94
2018-10-03T02:52:28.913Z,97.75
2018-10-03T02:53:29.007Z,97.85
2018-10-03T02:54:29.106Z,98.42
2018-10-03T02:55:29.189Z,98.03
2018-10-03T02:56:29.282Z,98.13
2018-10-03T02:57:29.370Z,97.85
2018-10-03T02:58:29.464Z,98.13
2018-10-03T02:59:29.558Z,97.99
2018-10-03T03:00:29.647Z,98.08
2018-10-03T03:01:29.805Z,98.47
2018-10-03T03:02:29.837Z,98.08
2018-10-03T03:03:29.928Z,98.37
2018-10-03T03:04:30.033Z,98.47
2018-10-03T03:05:30.119Z,99.04
2018-10-03T03:06:30.208Z,98.75
2018-10-03T03:07:30.311Z,98.94
2018-10-03T03:08:30.441Z,99.52
2018-10-03T03:09:30.495Z,99.52
2018-10-03T03:10:30.583Z,99.80
2018-10-03T03:11:30.676Z,99.61
2018-10-03T03:12:30.764Z,99.52
2018-10-03T03:13:30.859Z,99.80
2018-10-03T03:14:30.962Z,99.80
2018-10-03T03:15:31.050Z,99.52
2018-10-03T03:16:31.137Z,99.52
2018-10-03T03:17:31.227Z,99.32
2018-10-03T03:18:31.320Z,99.80
2018-10-03T03:19:31.411Z,99.52
2018-10-03T03:20:31.503Z,99.42
2018-10-03T03:21:31.601Z,98.85
2018-10-03T03:22:31.693Z,98.94
2018-10-03T03:23:31.779Z,98.85
2018-10-03T03:24:31.882Z,99.04
2018-10-03T03:25:31.982Z,98.85
2018-10-03T03:26:32.072Z,98.85
2018-10-03T03:27:32.162Z,98.75
2018-10-03T03:28:32.256Z,98.85
2018-10-03T03:29:32.352Z,98.56
2018-10-03T03:30:32.440Z,98.85
2018-10-03T03:31:32.531Z,99.04
2018-10-03T03:32:32.627Z,98.85
2018-10-03T03:33:32.718Z,98.18
2018-10-03T03:34:32.831Z,98.85
2018-10-03T03:35:32.924Z,98.94
2018-10-03T03:36:33.013Z,98.66
2018-10-03T03:37:33.105Z,98.56
2018-10-03T03:38:33.197Z,98.85
2018-10-03T03:39:33.286Z,98.56
2018-10-03T03:40:33.379Z,98.75
2018-10-03T03:41:33.472Z,98.94
2018-10-03T03:42:33.571Z,98.85
2018-10-03T03:43:33.664Z,98.94
2018-10-03T03:44:33.754Z,98.94
2018-10-03T03:45:33.845Z,98.75
2018-10-03T03:46:33.934Z,99.04
2018-10-03T03:47:34.048Z,98.75
2018-10-03T03:48:34.141Z,98.56
2018-10-03T03:49:34.233Z,98.37
2018-10-03T03:50:34.325Z,98.47
2018-10-03T03:51:34.419Z,98.56
2018-10-03T03:52:34.511Z,98.75
2018-10-03T03:53:34.614Z,99.04
2018-10-03T03:54:34.696Z,99.42
2018-10-03T03:55:34.781Z,99.13
2018-10-03T03:56:34.879Z,99.23
2018-10-03T03:57:34.967Z,99.23
2018-10-03T03:58:35.071Z,99.04
2018-10-03T03:59:35.154Z,98.94
2018-10-03T04:00:35.247Z,98.94
2018-10-03T04:01:35.333Z,99.80
2018-10-03T04:02:35.426Z,99.52
2018-10-03T04:03:35.517Z,99.52
2018-10-03T04:04:35.609Z,99.32
2018-10-03T04:05:35.704Z,99.42
2018-10-03T04:06:35.800Z,99.32
2018-10-03T04:07:35.898Z,99.42
2018-10-03T04:08:35.986Z,99.52
2018-10-03T04:09:36.081Z,99.71
2018-10-03T04:10:36.172Z,99.71
2018-10-03T04:11:36.264Z,99.52
2018-10-03T04:12:36.359Z,99.71
2018-10-03T04:13:36.457Z,99.71
2018-10-03T04:14:36.549Z,99.52
2018-10-03T04:15:36.639Z,99.52
2018-10-03T04:16:36.729Z,99.90
2018-10-03T04:17:36.831Z,99.56
2018-10-03T04:18:36.916Z,99.61
2018-10-03T04:19:37.007Z,99.99
2018-10-03T04:20:37.101Z,99.99
2018-10-03T04:21:37.194Z,99.75
2018-10-03T04:22:37.290Z,99.46
2018-10-03T04:23:37.386Z,99.75
2018-10-03T04:24:37.476Z,99.66
2018-10-03T04:25:37.568Z,99.95
2018-10-03T04:26:37.665Z,99.99
2018-10-03T04:27:37.754Z,99.99
2018-10-03T04:28:37.848Z,99.99
2018-10-03T04:29:37.939Z,99.99
2018-10-03T04:30:38.029Z,99.95
2018-10-03T04:31:38.120Z,99.99
2018-10-03T04:32:38.209Z,99.99
2018-10-03T04:33:38.311Z,99.99
2018-10-03T04:34:38.401Z,99.99
2018-10-03T04:35:38.638Z,99.99
2018-10-03T04:36:38.567Z,99.99
2018-10-03T04:37:38.664Z,99.95
2018-10-03T04:38:38.753Z,99.56
2018-10-03T04:39:38.852Z,99.46
2018-10-03T04:40:38.947Z,99.66
2018-10-03T04:41:39.037Z,99.95
2018-10-03T04:42:39.130Z,99.99
2018-10-03T04:43:39.225Z,99.99
2018-10-03T04:44:39.320Z,99.99
2018-10-03T04:45:39.416Z,99.99
2018-10-03T04:46:39.509Z,99.99
2018-10-03T04:47:39.601Z,99.99
2018-10-03T04:48:39.689Z,99.99
2018-10-03T04:49:39.780Z,99.99
2018-10-03T04:50:39.872Z,99.99
2018-10-03T04:51:39.967Z,99.99
2018-10-03T04:52:40.056Z,99.99
2018-10-03T04:53:40.155Z,99.99
2018-10-03T04:54:40.246Z,99.99
2018-10-03T04:55:40.339Z,99.99
2018-10-03T04:56:40.430Z,99.99
2018-10-03T04:57:40.521Z,99.99
2018-10-03T04:58:40.608Z,99.99
2018-10-03T04:59:40.699Z,99.99
2018-10-03T05:00:40.793Z,99.99
2018-10-03T05:01:40.894Z,99.99
2018-10-03T05:02:40.977Z,99.99
2018-10-03T05:03:41.069Z,99.99
2018-10-03T05:04:41.161Z,99.99
2018-10-03T05:05:41.245Z,99.99
2018-10-03T05:06:41.341Z,99.99
2018-10-03T05:07:41.434Z,99.99
2018-10-03T05:08:41.528Z,99.99
2018-10-03T05:09:41.624Z,99.99
2018-10-03T05:10:41.712Z,99.99
2018-10-03T05:11:41.834Z,99.99
2018-10-03T05:12:41.900Z,99.99
2018-10-03T05:13:41.992Z,99.99
2018-10-03T05:14:42.086Z,99.99
2018-10-03T05:15:42.180Z,99.99
2018-10-03T05:16:42.269Z,99.99
2018-10-03T05:17:42.364Z,99.99
2018-10-03T05:18:42.459Z,99.99
2018-10-03T05:19:42.549Z,99.99
2018-10-03T05:20:42.641Z,99.99
2018-10-03T05:21:42.732Z,99.99
2018-10-03T05:22:42.822Z,99.99
2018-10-03T05:23:42.952Z,99.99
2018-10-03T05:24:43.043Z,99.99
2018-10-03T05:25:43.135Z,99.99
2018-10-03T05:26:43.233Z,99.99
2018-10-03T05:27:43.332Z,99.99
2018-10-03T05:28:43.408Z,99.99
2018-10-03T05:29:43.504Z,99.99
2018-10-03T05:30:43.588Z,99.99
2018-10-03T05:31:43.681Z,99.99
2018-10-03T05:32:43.777Z,99.99
2018-10-03T05:33:43.866Z,99.99
2018-10-03T05:34:43.961Z,99.99
2018-10-03T05:35:44.052Z,99.99
2018-10-03T05:36:44.145Z,99.99
2018-10-03T05:37:44.238Z,99.99
2018-10-03T05:38:44.329Z,99.99
2018-10-03T05:39:44.519Z,99.99
2018-10-03T05:40:44.515Z,99.99
2018-10-03T05:41:44.609Z,99.99
2018-10-03T05:42:44.697Z,99.99
2018-10-03T05:43:44.791Z,99.99
2018-10-03T05:44:44.877Z,99.99
2018-10-03T05:45:44.974Z,99.99
2018-10-03T05:46:45.061Z,99.99
2018-10-03T05:47:45.152Z,99.99
2018-10-03T05:48:45.283Z,99.99
2018-10-03T05:49:45.341Z,99.99
2018-10-03T05:50:45.434Z,99.99
2018-10-03T05:51:45.524Z,99.99
2018-10-03T05:52:45.618Z,99.99
2018-10-03T05:53:45.708Z,99.99
2018-10-03T05:54:45.863Z,99.99
2018-10-03T05:55:45.890Z,99.99
2018-10-03T05:56:45.980Z,99.99
2018-10-03T05:57:46.079Z,99.99
2018-10-03T05:58:46.166Z,99.99
2018-10-03T05:59:46.261Z,99.99
2018-10-03T06:00:46.356Z,99.99
2018-10-03T06:01:46.447Z,99.99
2018-10-03T06:02:46.574Z,99.99
2018-10-03T06:03:46.632Z,99.99
2018-10-03T06:04:46.724Z,99.99
2018-10-03T06:05:46.811Z,99.99
2018-10-03T06:06:46.908Z,99.99
2018-10-03T06:07:47.004Z,99.99
2018-10-03T06:08:47.108Z,99.99
2018-10-03T06:09:47.202Z,99.99
2018-10-03T06:10:47.292Z,99.95
2018-10-03T06:14:30.014Z,99.99
2018-10-03T06:15:30.104Z,99.99
2018-10-03T06:16:30.196Z,99.99
2018-10-03T06:17:30.289Z,99.99
2018-10-03T06:18:30.406Z,99.99
2018-10-03T06:19:30.474Z,99.99
2018-10-03T06:20:30.557Z,99.99
2018-10-03T06:21:30.646Z,99.99
2018-10-03T06:22:30.739Z,99.99
2018-10-03T06:23:30.834Z,99.99
2018-10-03T06:24:30.924Z,99.99
2018-10-03T06:25:31.019Z,99.99
2018-10-03T06:26:31.110Z,99.99
2018-10-03T06:27:31.198Z,99.99
2018-10-03T06:28:31.292Z,99.99
2018-10-03T06:29:31.383Z,99.99
2018-10-03T06:30:31.472Z,99.99
2018-10-03T06:31:31.564Z,99.99
2018-10-03T06:32:31.658Z,99.90
2018-10-03T06:33:31.794Z,99.52
2018-10-03T06:34:31.842Z,99.52
2018-10-03T06:35:31.936Z,99.23
2018-10-03T06:36:32.028Z,99.42
2018-10-03T06:37:32.122Z,99.32
2018-10-03T06:38:32.198Z,99.23
2018-10-03T06:39:32.352Z,99.61
2018-10-03T06:40:32.424Z,99.71
2018-10-03T06:41:32.465Z,99.52
2018-10-03T06:42:32.562Z,99.61
2018-10-03T06:43:32.651Z,99.80
2018-10-03T06:44:32.750Z,99.52
2018-10-03T06:45:32.852Z,99.71
2018-10-03T06:46:32.930Z,99.32
2018-10-03T06:47:33.024Z,99.52
2018-10-03T06:48:33.115Z,99.42
2018-10-03T06:49:33.210Z,99.71
2018-10-03T06:50:33.304Z,99.42
2018-10-03T06:51:33.397Z,99.52
2018-10-03T06:52:33.488Z,99.52
2018-10-03T06:53:33.584Z,99.61
2018-10-03T06:54:33.677Z,96.56
2018-10-03T06:55:33.767Z,95.89
2018-10-03T06:56:33.859Z,96.08
2018-10-03T06:57:33.953Z,96.22
2018-10-03T06:58:34.045Z,97.08
2018-10-03T06:59:41.306Z,96.80
2018-10-03T07:00:34.277Z,96.98
2018-10-03T07:01:34.368Z,97.08
2018-10-03T07:02:34.461Z,96.98
2018-10-03T07:03:34.553Z,97.08
2018-10-03T07:04:34.645Z,96.89
2018-10-03T07:05:34.753Z,96.98
2018-10-03T07:06:34.823Z,96.80
2018-10-03T07:07:34.916Z,97.18
2018-10-03T07:08:35.009Z,96.51
2018-10-03T07:09:35.103Z,96.42
2018-10-03T07:10:35.196Z,96.51
2018-10-03T07:11:35.285Z,96.08
2018-10-03T07:12:35.380Z,95.89
2018-10-03T07:13:35.474Z,96.17
2018-10-03T07:14:35.567Z,95.41
2018-10-03T07:15:35.657Z,95.12
2018-10-03T07:16:35.750Z,95.22
2018-10-03T07:17:35.848Z,95.51
2018-10-03T07:18:35.938Z,95.03
2018-10-03T07:19:36.032Z,94.84
2018-10-03T07:20:36.130Z,95.03
2018-10-03T07:21:36.215Z,94.46
2018-10-03T07:22:36.309Z,94.07
2018-10-03T07:23:36.404Z,94.17
2018-10-03T07:24:36.498Z,94.07
2018-10-03T07:25:36.590Z,94.17
2018-10-03T07:26:36.681Z,94.07
2018-10-03T07:27:36.777Z,94.27
2018-10-03T07:28:36.870Z,94.07
2018-10-03T07:29:36.963Z,94.36
2018-10-03T07:30:37.058Z,93.88
2018-10-03T07:31:37.151Z,93.50
2018-10-03T07:32:37.251Z,93.41
2018-10-03T07:33:37.336Z,93.12
2018-10-03T07:34:37.433Z,93.70
2018-10-03T07:35:37.527Z,93.79
2018-10-03T07:36:37.616Z,93.88
2018-10-03T07:37:37.711Z,94.36
2018-10-03T07:38:37.806Z,94.31
2018-10-03T07:39:37.897Z,93.65
2018-10-03T07:40:37.991Z,93.26
2018-10-03T07:41:38.087Z,93.07
2018-10-03T07:42:38.178Z,91.83
2018-10-03T07:43:38.277Z,90.97
2018-10-03T07:44:38.369Z,90.68
2018-10-03T07:45:38.465Z,90.39
2018-10-03T07:46:38.555Z,89.82
2018-10-03T07:47:38.652Z,90.11
2018-10-03T07:48:38.742Z,89.82
2018-10-03T07:49:38.836Z,89.39
2018-10-03T07:50:38.924Z,89.48
2018-10-03T07:51:39.011Z,89.96
2018-10-03T07:52:39.104Z,89.77
2018-10-03T07:53:39.229Z,88.72
2018-10-03T07:54:39.294Z,88.05
2018-10-03T07:55:39.382Z,87.86
2018-10-03T07:56:39.478Z,86.52
2018-10-03T07:57:39.570Z,86.33
2018-10-03T07:58:39.659Z,86.61
2018-10-03T07:59:39.786Z,86.43
2018-10-03T08:00:39.858Z,86.71
2018-10-03T08:01:39.941Z,86.52
2018-10-03T08:02:40.036Z,85.57
2018-10-03T08:03:40.127Z,85.66
2018-10-03T08:04:40.219Z,85.66
2018-10-03T08:05:40.313Z,84.89
2018-10-03T08:06:40.409Z,84.70
2018-10-03T08:07:40.508Z,84.99
2018-10-03T08:08:40.595Z,85.47
2018-10-03T08:09:40.688Z,84.08
2018-10-03T08:10:40.788Z,84.36
2018-10-03T08:11:40.878Z,84.46
2018-10-03T08:12:40.995Z,84.27
2018-10-03T08:13:41.049Z,82.64
2018-10-03T08:14:41.139Z,82.54
2018-10-03T08:15:41.233Z,82.45
2018-10-03T08:16:41.327Z,82.26
2018-10-03T08:17:41.425Z,82.17
2018-10-03T08:18:41.516Z,82.74
2018-10-03T08:19:41.609Z,82.83
2018-10-03T08:20:41.708Z,83.12
2018-10-03T08:21:41.796Z,83.12
2018-10-03T08:22:41.883Z,82.78
2018-10-03T08:23:41.989Z,82.64
2018-10-03T08:24:42.116Z,81.44
2018-10-03T08:25:42.175Z,81.30
2018-10-03T08:26:42.266Z,80.92
2018-10-03T08:27:42.359Z,81.40
2018-10-03T08:28:42.455Z,81.88
2018-10-03T08:29:42.547Z,82.64
2018-10-03T08:30:42.651Z,81.68
2018-10-03T08:31:42.732Z,81.11
2018-10-03T08:32:42.940Z,80.96
2018-10-03T08:33:42.925Z,80.96
2018-10-03T08:34:43.019Z,80.38
2018-10-03T08:35:43.117Z,80.63
2018-10-03T08:36:43.208Z,80.96
2018-10-03T08:37:43.301Z,81.15
2018-10-03T08:38:43.450Z,80.19
2018-10-03T08:39:43.487Z,80.29
2018-10-03T08:40:43.581Z,79.81
2018-10-03T08:41:43.675Z,79.33
2018-10-03T08:42:43.768Z,78.34
2018-10-03T08:43:43.860Z,78.76
2018-10-03T08:44:43.955Z,78.86
2018-10-03T08:45:44.052Z,78.95
2018-10-03T08:46:44.146Z,79.33
2018-10-03T08:47:44.235Z,79.24
2018-10-03T08:48:44.321Z,79.62
2018-10-03T08:49:44.412Z,79.43
2018-10-03T08:50:44.506Z,79.24
2018-10-03T08:51:44.614Z,78.61
2018-10-03T08:52:44.691Z,77.65
2018-10-03T08:53:44.785Z,77.84
2018-10-03T08:54:44.898Z,76.79
2018-10-03T08:55:44.991Z,77.17
2018-10-03T08:56:45.086Z,77.17
2018-10-03T08:57:45.179Z,77.26
2018-10-03T08:58:45.275Z,76.31
2018-10-03T08:59:45.370Z,76.69
2018-10-03T09:00:45.464Z,76.60
2018-10-03T09:01:45.554Z,76.50
2018-10-03T09:02:45.653Z,76.21
2018-10-03T09:03:45.748Z,75.93
2018-10-03T09:04:45.842Z,75.16
2018-10-03T09:05:45.937Z,74.77
2018-10-03T09:06:46.026Z,74.58
2018-10-03T09:07:46.122Z,74.30
2018-10-03T09:08:46.242Z,74.49
2018-10-03T09:09:46.312Z,74.30
2018-10-03T09:10:46.408Z,74.58
2018-10-03T09:11:46.569Z,75.16
2018-10-03T09:12:46.595Z,74.87
2018-10-03T09:13:46.690Z,73.72
2018-10-03T09:14:46.786Z,73.72
2018-10-03T09:15:46.876Z,73.91
2018-10-03T09:16:46.973Z,74.30
2018-10-03T09:17:47.066Z,74.40
2018-10-03T09:18:47.159Z,73.54
2018-10-03T09:19:47.256Z,73.44
2018-10-03T09:20:47.349Z,73.44
2018-10-03T09:21:47.470Z,73.63
2018-10-03T09:22:47.539Z,73.91
2018-10-03T09:23:47.632Z,74.68
2018-10-03T09:24:47.724Z,73.63
2018-10-03T09:25:47.830Z,73.05
2018-10-03T09:26:47.913Z,73.44
2018-10-03T09:27:48.007Z,73.09
2018-10-03T09:28:48.101Z,73.76
2018-10-03T09:29:48.290Z,72.99
2018-10-03T09:30:48.259Z,72.90
2018-10-03T09:31:48.353Z,73.38
2018-10-03T09:32:48.448Z,72.96
2018-10-03T09:33:48.564Z,73.44
2018-10-03T09:34:48.660Z,72.86
2018-10-03T09:35:48.753Z,73.34
2018-10-03T09:36:48.850Z,73.54
2018-10-03T09:37:48.945Z,72.38
2018-10-03T09:38:49.039Z,72.00
2018-10-03T09:39:49.132Z,71.42
2018-10-03T09:40:49.228Z,72.00
2018-10-03T09:41:49.319Z,72.96
2018-10-03T09:42:49.418Z,73.05
2018-10-03T09:43:49.545Z,72.67
2018-10-03T09:44:49.591Z,72.09
2018-10-03T09:45:49.685Z,72.48
2018-10-03T09:46:49.785Z,71.94
2018-10-03T09:47:49.883Z,72.29
2018-10-03T09:48:49.976Z,72.38
2018-10-03T09:49:50.070Z,72.13
2018-10-03T09:50:50.164Z,72.42
2018-10-03T09:51:50.258Z,72.03
2018-10-03T09:52:50.356Z,72.23
2018-10-03T09:53:50.455Z,71.66
2018-10-03T09:54:50.541Z,71.66
2018-10-03T09:55:50.637Z,71.46
2018-10-03T09:56:50.728Z,71.17
2018-10-03T09:57:50.824Z,71.02
2018-10-03T09:58:50.918Z,70.44
2018-10-03T09:59:51.012Z,69.48
2018-10-03T10:00:51.124Z,69.87
2018-10-03T10:01:51.201Z,69.87
2018-10-03T10:02:51.296Z,68.91
2018-10-03T10:03:51.396Z,68.72
2018-10-03T10:04:51.485Z,69.68
2018-10-03T10:05:51.585Z,68.72
2018-10-03T10:06:51.675Z,68.24
2018-10-03T10:07:51.771Z,68.43
2018-10-03T10:08:51.864Z,68.40
2018-10-03T10:09:51.959Z,69.01
2018-10-03T10:10:52.056Z,68.68
2018-10-03T10:11:52.152Z,68.59
2018-10-03T10:12:52.247Z,68.30
2018-10-03T10:13:52.341Z,67.44
2018-10-03T10:14:52.433Z,68.01
2018-10-03T10:15:52.530Z,67.47
2018-10-03T10:16:52.624Z,67.38
2018-10-03T10:17:52.719Z,68.14
2018-10-03T10:18:52.813Z,67.38
2018-10-03T10:19:52.911Z,67.47
2018-10-03T10:20:53.106Z,67.34
2018-10-03T10:21:53.101Z,66.29
2018-10-03T10:22:53.196Z,66.09
2018-10-03T10:23:53.289Z,66.09
2018-10-03T10:24:53.387Z,66.48
2018-10-03T10:25:53.483Z,66.38
2018-10-03T10:26:53.574Z,66.58
2018-10-03T10:27:53.665Z,65.42
2018-10-03T10:28:53.759Z,64.47
2018-10-03T10:29:53.856Z,64.28
2018-10-03T10:30:53.950Z,64.47
2018-10-03T10:31:54.153Z,63.99
2018-10-03T10:32:54.196Z,63.22
2018-10-03T10:33:54.236Z,63.03
2018-10-03T10:34:54.330Z,63.32
2018-10-03T10:35:54.425Z,63.80
2018-10-03T10:36:54.519Z,64.02
2018-10-03T10:37:54.685Z,63.83
2018-10-03T10:38:54.712Z,63.92
2018-10-03T10:39:54.799Z,64.56
2018-10-03T10:40:54.963Z,64.72
2018-10-03T10:41:54.994Z,66.93
2018-10-03T10:42:55.089Z,67.60
2018-10-03T10:43:55.182Z,66.51
2018-10-03T10:44:55.274Z,66.89
2018-10-03T10:45:55.388Z,67.18
2018-10-03T10:46:55.485Z,67.85
2018-10-03T10:47:55.580Z,68.62
2018-10-03T10:48:55.677Z,68.42
2018-10-03T10:49:55.772Z,68.52
2018-10-03T10:50:55.866Z,67.37
2018-10-03T10:51:56.003Z,66.70
2018-10-03T10:52:56.061Z,67.37
2018-10-03T10:53:56.148Z,67.94
2018-10-03T10:54:56.245Z,68.23
2018-10-03T10:55:56.340Z,68.27
2018-10-03T10:56:56.437Z,68.46
2018-10-03T10:57:56.530Z,67.31
2018-10-03T10:58:56.624Z,67.41
2018-10-03T10:59:56.720Z,67.79
2018-10-03T11:00:56.814Z,67.60
2018-10-03T11:01:56.906Z,68.17
2018-10-03T11:02:57.003Z,67.98
2018-10-03T11:03:57.099Z,67.31
2018-10-03T11:04:57.195Z,65.97
2018-10-03T11:05:57.290Z,64.63
2018-10-03T11:06:57.381Z,63.48
2018-10-03T11:07:57.476Z,63.00
2018-10-03T11:08:57.574Z,62.81
2018-10-03T11:09:57.670Z,62.97
2018-10-03T11:10:57.762Z,63.45
2018-10-03T11:11:57.854Z,63.83
2018-10-03T11:12:57.950Z,63.16
2018-10-03T11:13:58.043Z,63.39
2018-10-03T11:14:58.137Z,62.81
2018-10-03T11:15:58.235Z,63.00
2018-10-03T11:16:58.351Z,63.00
2018-10-03T11:17:58.419Z,63.10
2018-10-03T11:18:58.517Z,63.13
2018-10-03T11:19:58.608Z,63.42
2018-10-03T11:20:58.703Z,62.84
2018-10-03T11:21:58.797Z,61.79
2018-10-03T11:22:58.896Z,61.53
2018-10-03T11:23:59.143Z,60.67
2018-10-03T11:24:59.112Z,61.24
2018-10-03T11:25:59.174Z,60.28
2018-10-03T11:26:59.269Z,60.67
2018-10-03T11:27:59.365Z,59.42
2018-10-03T11:28:59.458Z,59.23
2018-10-03T11:29:59.553Z,59.90
2018-10-03T11:30:59.649Z,59.80
2018-10-03T11:31:59.812Z,59.23
2018-10-03T11:32:59.864Z,59.23
2018-10-03T11:33:59.959Z,58.46
2018-10-03T11:35:00.051Z,58.08
2018-10-03T11:36:00.145Z,57.21
2018-10-03T11:37:00.241Z,57.60
2018-10-03T11:38:00.334Z,57.70
2018-10-03T11:39:00.438Z,58.11
2018-10-03T11:40:00.526Z,58.11
2018-10-03T11:41:00.622Z,57.24
2018-10-03T11:42:00.721Z,56.38
2018-10-03T11:43:00.815Z,55.42
2018-10-03T11:44:00.948Z,55.71
2018-10-03T11:45:01.004Z,56.48
2018-10-03T11:46:01.099Z,56.38
2018-10-03T11:47:01.194Z,56.09
2018-10-03T11:48:01.290Z,55.64
2018-10-03T11:49:01.385Z,55.45
2018-10-03T11:50:01.479Z,54.78
2018-10-03T11:51:01.575Z,54.49
2018-10-03T11:52:01.670Z,52.86
2018-10-03T11:53:01.765Z,53.05
2018-10-03T11:54:01.861Z,53.44
2018-10-03T11:55:01.954Z,53.15
2018-10-03T11:56:02.050Z,53.34
2018-10-03T11:57:02.212Z,53.63
2018-10-03T11:58:02.243Z,52.48
2018-10-03T11:59:02.331Z,52.22
2018-10-03T12:00:02.424Z,52.50
2018-10-03T12:01:02.519Z,52.38
2018-10-03T12:02:02.616Z,51.71
2018-10-03T12:03:02.764Z,52.38
2018-10-03T12:04:02.825Z,51.51
2018-10-03T12:05:02.919Z,51.71
2018-10-03T12:06:03.016Z,51.61
2018-10-03T12:07:03.105Z,51.61
2018-10-03T12:08:03.201Z,52.19
2018-10-03T12:09:03.300Z,51.45
2018-10-03T12:10:03.396Z,52.28
2018-10-03T12:11:03.495Z,53.05
2018-10-03T12:12:03.593Z,53.89
2018-10-03T12:13:03.687Z,54.94
2018-10-03T12:14:03.786Z,55.52
2018-10-03T12:15:03.879Z,55.42
2018-10-03T12:16:03.976Z,55.16
2018-10-03T12:17:04.075Z,54.21
2018-10-03T12:18:04.165Z,54.58
2018-10-03T12:19:04.260Z,52.64
2018-10-03T12:20:04.355Z,52.16
2018-10-03T12:21:04.447Z,53.44
2018-10-03T12:22:04.540Z,53.91
2018-10-03T12:23:04.637Z,54.39
2018-10-03T12:24:04.736Z,53.53
2018-10-03T12:25:04.871Z,54.11
2018-10-03T12:26:04.946Z,54.88
2018-10-03T12:27:05.047Z,55.45
2018-10-03T12:28:05.142Z,54.39
2018-10-03T12:29:05.235Z,54.30
2018-10-03T12:30:05.332Z,54.39
2018-10-03T12:31:05.428Z,54.30
2018-10-03T12:32:05.528Z,54.01
2018-10-03T12:33:05.623Z,53.36
2018-10-03T12:34:05.716Z,53.34
2018-10-03T12:35:05.812Z,53.15
2018-10-03T12:36:05.908Z,53.15
2018-10-03T12:37:06.005Z,53.63
2018-10-03T12:38:06.093Z,53.44
2018-10-03T12:39:06.196Z,53.44
2018-10-03T12:40:06.292Z,53.91
2018-10-03T12:41:06.387Z,52.95
2018-10-03T12:42:06.483Z,52.95
2018-10-03T12:43:06.580Z,53.31
2018-10-03T12:44:06.673Z,53.99
2018-10-03T12:45:06.848Z,53.79
2018-10-03T12:46:06.879Z,53.99
2018-10-03T12:47:06.975Z,53.89
2018-10-03T12:48:07.070Z,53.89
2018-10-03T12:49:07.164Z,54.46
2018-10-03T12:50:07.265Z,53.89
2018-10-03T12:51:07.361Z,53.60
2018-10-03T12:52:07.457Z,54.27
2018-10-03T12:53:07.549Z,53.70
2018-10-03T12:54:07.645Z,53.79
2018-10-03T12:55:07.742Z,54.24
2018-10-03T12:56:07.841Z,54.63